createdAt,value
2023-03-07T00:00:54.342Z,-0.48
2023-03-07T00:03:58.004Z,-0.57
2023-03-07T00:07:00.751Z,-0.53
2023-03-07T00:10:03.530Z,-0.42
2023-03-07T00:13:06.466Z,-0.51
2023-03-07T00:16:13.278Z,-0.39
2023-03-07T00:19:16.070Z,-0.42
2023-03-07T00:22:18.738Z,-0.33
2023-03-07T00:25:21.576Z,-0.33
2023-03-07T00:28:24.188Z,-0.27
2023-03-07T00:31:27.079Z,-0.13
2023-03-07T00:34:29.659Z,-0.07
2023-03-07T00:37:32.324Z,-0.08
2023-03-07T00:40:35.095Z,-0.12
2023-03-07T00:43:37.926Z,-0.09
2023-03-07T00:46:40.489Z,-0.07
2023-03-07T00:49:44.592Z,-0.03
2023-03-07T00:52:47.612Z,-0.02
2023-03-07T00:56:05.833Z,-0.05
2023-03-07T00:59:11.619Z,-0.09
2023-03-07T01:02:14.328Z,-0.04
2023-03-07T01:05:17.549Z,-0.14
2023-03-07T01:08:21.180Z,-0.15
2023-03-07T01:11:24.072Z,-0.24
2023-03-07T01:14:26.831Z,-0.39
2023-03-07T01:17:29.615Z,-0.49
2023-03-07T01:20:33.777Z,-0.52
2023-03-07T01:23:36.496Z,-0.50
2023-03-07T01:26:39.215Z,-0.53
2023-03-07T01:29:41.871Z,-0.58
2023-03-07T01:32:44.801Z,-0.62
2023-03-07T01:35:47.567Z,-0.55
2023-03-07T01:38:50.895Z,-0.55
2023-03-07T01:41:53.747Z,-0.50
2023-03-07T01:45:35.852Z,-0.52
2023-03-07T01:48:40.038Z,-0.56
2023-03-07T01:51:46.659Z,-0.59
2023-03-07T01:54:52.639Z,-0.47
2023-03-07T01:58:00.633Z,-0.47
2023-03-07T02:01:03.345Z,-0.57
2023-03-07T02:04:17.420Z,-0.63
2023-03-07T02:07:22.403Z,-0.58
2023-03-07T02:10:26.017Z,-0.65
2023-03-07T02:13:29.146Z,-0.75
2023-03-07T02:16:31.839Z,-0.82
2023-03-07T02:19:38.009Z,-0.87
2023-03-07T02:22:41.603Z,-0.94
2023-03-07T02:25:47.090Z,-0.90
2023-03-07T02:28:49.925Z,-0.80
2023-03-07T02:31:52.563Z,-0.98
2023-03-07T02:34:55.235Z,-1.04
2023-03-07T02:38:03.437Z,-1.09
2023-03-07T02:41:06.461Z,-1.10
2023-03-07T02:44:11.511Z,-1.09
2023-03-07T02:47:14.707Z,-1.06
2023-03-07T02:50:17.772Z,-0.97
2023-03-07T02:53:24.356Z,-1.05
2023-03-07T02:56:27.035Z,-1.16
2023-03-07T02:59:29.618Z,-1.14
2023-03-07T03:02:32.348Z,-1.15
2023-03-07T03:05:34.925Z,-1.12
2023-03-07T03:08:37.644Z,-0.99
2023-03-07T03:11:40.300Z,-1.10
2023-03-07T03:14:42.922Z,-1.20
2023-03-07T03:17:47.919Z,-1.23
2023-03-07T03:20:50.559Z,-1.24
2023-03-07T03:23:53.267Z,-1.22
2023-03-07T03:26:58.187Z,-1.27
2023-03-07T03:30:02.384Z,-1.25
2023-03-07T03:33:06.200Z,-1.30
2023-03-07T03:36:13.777Z,-1.29
2023-03-07T03:39:17.178Z,-1.40
2023-03-07T03:42:24.208Z,-1.35
2023-03-07T03:45:27.129Z,-1.34
2023-03-07T03:48:29.928Z,-1.40
2023-03-07T03:51:32.914Z,-1.37
2023-03-07T03:54:36.033Z,-1.29
2023-03-07T03:57:39.046Z,-1.27
2023-03-07T04:00:42.038Z,-1.33
2023-03-07T04:03:47.614Z,-1.33
2023-03-07T04:06:51.242Z,-1.29
2023-03-07T04:09:53.843Z,-1.33
2023-03-07T04:12:56.848Z,-1.21
2023-03-07T04:15:59.498Z,-1.22
2023-03-07T04:19:02.140Z,-1.20
2023-03-07T04:22:04.956Z,-1.20
2023-03-07T04:25:08.081Z,-1.17
2023-03-07T04:28:10.622Z,-1.14
2023-03-07T04:31:19.485Z,-1.14
2023-03-07T04:34:22.149Z,-1.14
2023-03-07T04:37:24.981Z,-1.02
2023-03-07T04:40:27.559Z,-0.94
2023-03-07T04:43:30.153Z,-0.96
2023-03-07T04:46:35.511Z,-0.98
2023-03-07T04:49:38.410Z,-0.91
2023-03-07T04:52:42.406Z,-0.82
2023-03-07T04:55:45.422Z,-0.77
2023-03-07T04:58:47.956Z,-0.68
2023-03-07T05:01:52.771Z,-0.75
2023-03-07T05:04:55.473Z,-0.76
2023-03-07T05:07:58.729Z,-0.71
2023-03-07T05:11:01.887Z,-0.67
2023-03-07T05:14:05.365Z,-0.62
2023-03-07T05:17:09.750Z,-0.56
2023-03-07T05:20:13.281Z,-0.47
2023-03-07T05:23:18.090Z,-0.40
2023-03-07T05:26:23.312Z,-0.43
2023-03-07T05:29:26.459Z,-0.36
2023-03-07T05:32:29.121Z,-0.35
2023-03-07T05:35:32.842Z,-0.29
2023-03-07T05:38:36.926Z,-0.19
2023-03-07T05:41:39.546Z,-0.18
2023-03-07T05:44:43.102Z,-0.09
2023-03-07T05:47:45.979Z,0.04
2023-03-07T05:50:49.387Z,0.02
2023-03-07T05:53:53.784Z,0.08
2023-03-07T05:56:57.439Z,0.17
2023-03-07T06:00:00.280Z,0.23
2023-03-07T06:03:03.787Z,0.32
2023-03-07T06:06:07.991Z,0.39
2023-03-07T06:09:10.904Z,0.18
2023-03-07T06:12:14.942Z,0.28
2023-03-07T06:15:17.943Z,0.41
2023-03-07T06:18:22.559Z,0.53
2023-03-07T06:21:25.616Z,0.52
2023-03-07T06:24:28.423Z,0.60
2023-03-07T06:27:36.281Z,0.66
2023-03-07T06:30:39.674Z,0.72
2023-03-07T06:33:43.115Z,0.76
2023-03-07T06:36:48.764Z,0.82
2023-03-07T06:39:54.069Z,0.82
2023-03-07T06:42:56.812Z,0.91
2023-03-07T06:45:59.756Z,0.97
2023-03-07T06:49:08.459Z,0.93
2023-03-07T06:52:11.580Z,0.92
2023-03-07T06:55:14.316Z,0.96
2023-03-07T06:58:17.517Z,1.06
2023-03-07T07:01:23.077Z,1.04
2023-03-07T07:04:28.248Z,1.06
2023-03-07T07:07:31.149Z,1.11
2023-03-07T07:10:34.930Z,1.05
2023-03-07T07:13:37.666Z,1.24
2023-03-07T07:16:41.653Z,1.23
2023-03-07T07:19:44.978Z,0.98
2023-03-07T07:22:47.953Z,1.03
2023-03-07T07:25:50.521Z,0.79
2023-03-07T07:28:53.578Z,1.17
2023-03-07T07:31:56.519Z,1.31
2023-03-07T07:34:59.185Z,1.40
2023-03-07T07:38:02.180Z,1.39
2023-03-07T07:41:05.196Z,1.26
2023-03-07T07:44:08.877Z,1.20
2023-03-07T07:47:18.227Z,1.20
2023-03-07T07:50:21.980Z,1.39
2023-03-07T07:53:24.997Z,1.21
2023-03-07T07:56:27.767Z,1.12
2023-03-07T07:59:32.006Z,0.81
2023-03-07T08:02:36.021Z,1.00
2023-03-07T08:05:44.236Z,0.91
2023-03-07T08:08:48.314Z,1.19
2023-03-07T08:11:51.150Z,1.23
2023-03-07T08:14:53.926Z,1.43
2023-03-07T08:17:56.761Z,1.71
2023-03-07T08:21:00.016Z,1.44
2023-03-07T08:24:03.494Z,1.57
2023-03-07T08:27:06.352Z,1.90
2023-03-07T08:30:09.694Z,1.89
2023-03-07T08:33:12.269Z,2.02
2023-03-07T08:36:15.124Z,1.87
2023-03-07T08:39:17.702Z,1.95
2023-03-07T08:42:20.638Z,2.18
2023-03-07T08:45:24.226Z,2.15
2023-03-07T08:48:27.300Z,2.42
2023-03-07T08:51:29.972Z,2.02
2023-03-07T08:54:32.798Z,2.23
2023-03-07T08:57:35.383Z,2.22
2023-03-07T09:00:39.082Z,2.43
2023-03-07T09:03:42.916Z,2.89
2023-03-07T09:06:45.573Z,2.76
2023-03-07T09:09:48.138Z,2.48
2023-03-07T09:12:55.341Z,2.60
2023-03-07T09:15:57.811Z,2.43
2023-03-07T09:19:00.570Z,2.60
2023-03-07T09:22:03.552Z,2.79
2023-03-07T09:25:06.606Z,2.47
2023-03-07T09:28:09.206Z,2.83
2023-03-07T09:31:13.958Z,2.63
2023-03-07T09:34:16.621Z,2.96
2023-03-07T09:37:19.577Z,3.10
2023-03-07T09:40:23.914Z,2.86
2023-03-07T09:43:27.379Z,3.08
2023-03-07T09:47:22.757Z,3.50
2023-03-07T09:50:55.961Z,3.36
2023-03-07T09:54:15.396Z,3.47
2023-03-07T09:57:31.861Z,3.52
2023-03-07T10:00:38.304Z,3.95
2023-03-07T10:03:49.878Z,4.14
2023-03-07T10:06:58.564Z,4.02
2023-03-07T10:10:03.111Z,4.15
2023-03-07T10:13:37.545Z,4.58
2023-03-07T10:16:44.806Z,5.01
2023-03-07T10:19:52.618Z,4.90
2023-03-07T10:23:01.888Z,4.12
2023-03-07T10:26:16.089Z,4.13
2023-03-07T10:29:20.376Z,4.37
2023-03-07T10:32:42.034Z,4.75
2023-03-07T10:35:50.408Z,4.01
2023-03-07T10:39:07.242Z,3.64
2023-03-07T10:42:14.177Z,3.38
2023-03-07T10:45:17.534Z,3.63
2023-03-07T10:48:21.375Z,3.62
2023-03-07T10:52:01.443Z,3.91
2023-03-07T10:55:38.649Z,3.75
2023-03-07T10:59:05.951Z,3.95
2023-03-07T11:02:23.854Z,4.35
2023-03-07T11:05:34.062Z,4.21
2023-03-07T11:08:36.920Z,4.43
2023-03-07T11:11:39.801Z,4.66
2023-03-07T11:14:49.846Z,4.31
2023-03-07T11:17:53.048Z,4.26
2023-03-07T11:20:56.235Z,4.31
2023-03-07T11:24:17.526Z,4.25
2023-03-07T11:27:40.425Z,4.04
2023-03-07T11:30:48.038Z,3.84
2023-03-07T11:33:59.973Z,3.88
2023-03-07T11:37:38.334Z,3.67
2023-03-07T11:40:49.702Z,3.60
2023-03-07T11:44:13.119Z,3.38
2023-03-07T11:47:54.746Z,3.40
2023-03-07T11:50:57.929Z,3.40
2023-03-07T11:54:04.974Z,3.42
2023-03-07T11:57:19.357Z,3.46
2023-03-07T12:00:49.363Z,3.60
2023-03-07T12:04:20.285Z,4.03
2023-03-07T12:07:44.412Z,4.39
2023-03-07T12:11:10.378Z,4.22
2023-03-07T12:14:31.350Z,4.13
2023-03-07T12:17:53.008Z,4.07
2023-03-07T12:21:34.312Z,3.98
2023-03-07T12:24:55.964Z,3.81
2023-03-07T12:27:58.607Z,3.90
2023-03-07T12:31:04.236Z,4.06
2023-03-07T12:34:09.988Z,4.19
2023-03-07T12:37:24.198Z,4.31
2023-03-07T12:40:35.049Z,4.57
2023-03-07T12:43:51.921Z,4.74
2023-03-07T12:47:22.743Z,4.61
2023-03-07T12:50:29.142Z,4.68
2023-03-07T12:54:04.526Z,4.44
2023-03-07T12:57:21.367Z,4.32
2023-03-07T13:00:25.400Z,4.52
2023-03-07T13:03:41.363Z,4.68
2023-03-07T13:06:45.267Z,4.52
2023-03-07T13:09:49.623Z,4.52
2023-03-07T13:12:53.069Z,4.61
2023-03-07T13:16:07.043Z,4.57
2023-03-07T13:19:31.583Z,4.42
2023-03-07T13:22:37.297Z,4.53
2023-03-07T13:25:49.089Z,4.39
2023-03-07T13:28:52.512Z,4.33
2023-03-07T13:31:55.177Z,4.44
2023-03-07T13:34:57.925Z,4.59
2023-03-07T13:38:15.783Z,4.50
2023-03-07T13:41:45.531Z,4.46
2023-03-07T13:44:48.198Z,4.62
2023-03-07T13:47:50.948Z,4.66
2023-03-07T13:50:56.046Z,4.80
2023-03-07T13:54:16.960Z,4.77
2023-03-07T13:57:20.951Z,4.74
2023-03-07T14:00:32.454Z,4.64
2023-03-07T14:03:41.117Z,4.72
2023-03-07T14:06:50.567Z,4.74
2023-03-07T14:09:56.838Z,4.81
2023-03-07T14:13:21.538Z,4.86
2023-03-07T14:16:53.270Z,4.75
2023-03-07T14:20:17.865Z,4.88
2023-03-07T14:23:54.092Z,5.06
2023-03-07T14:26:58.531Z,4.89
2023-03-07T14:30:01.350Z,4.86
2023-03-07T14:33:04.168Z,5.01
2023-03-07T14:36:23.346Z,4.82
2023-03-07T14:39:33.645Z,4.72
2023-03-07T14:42:47.179Z,4.66
2023-03-07T14:45:59.825Z,4.62
2023-03-07T14:49:41.183Z,4.66
2023-03-07T14:52:44.908Z,4.65
2023-03-07T14:55:49.728Z,4.68
2023-03-07T14:58:58.678Z,4.66
2023-03-07T15:02:01.417Z,4.69
2023-03-07T15:05:04.952Z,4.75
2023-03-07T15:08:23.324Z,4.73
2023-03-07T15:11:28.789Z,4.55
2023-03-07T15:14:52.993Z,4.67
2023-03-07T15:18:06.421Z,4.67
2023-03-07T15:21:09.679Z,4.67
2023-03-07T15:24:31.703Z,4.69
2023-03-07T15:27:34.611Z,4.72
2023-03-07T15:30:38.584Z,4.68
2023-03-07T15:33:42.543Z,4.72
2023-03-07T15:36:45.617Z,4.71
2023-03-07T15:39:59.105Z,4.70
2023-03-07T15:43:04.889Z,4.64
2023-03-07T15:46:17.108Z,4.53
2023-03-07T15:49:22.824Z,4.60
2023-03-07T15:52:34.463Z,4.56
2023-03-07T15:55:38.790Z,4.60
2023-03-07T15:58:44.283Z,4.61
2023-03-07T16:01:47.408Z,4.65
2023-03-07T16:04:50.132Z,4.51
2023-03-07T16:07:57.677Z,4.52
2023-03-07T16:11:04.517Z,4.45
2023-03-07T16:14:30.401Z,4.45
2023-03-07T16:17:39.864Z,4.36
2023-03-07T16:20:42.678Z,4.36
2023-03-07T16:23:45.994Z,4.40
2023-03-07T16:26:49.031Z,4.36
2023-03-07T16:29:52.884Z,4.39
2023-03-07T16:32:55.995Z,4.34
2023-03-07T16:35:58.763Z,4.27
2023-03-07T16:39:01.537Z,4.28
2023-03-07T16:42:04.721Z,4.23
2023-03-07T16:45:32.755Z,4.20
2023-03-07T16:48:36.589Z,4.15
2023-03-07T16:51:40.099Z,4.07
2023-03-07T16:54:43.779Z,4.08
2023-03-07T16:57:51.010Z,4.10
2023-03-07T17:00:54.961Z,4.09
2023-03-07T17:04:05.737Z,4.13
2023-03-07T17:07:26.922Z,4.15
2023-03-07T17:10:29.938Z,4.17
2023-03-07T17:13:32.988Z,4.26
2023-03-07T17:16:39.551Z,4.16
2023-03-07T17:19:42.548Z,4.21
2023-03-07T17:22:45.562Z,4.17
2023-03-07T17:25:48.502Z,4.16
2023-03-07T17:28:51.612Z,4.08
2023-03-07T17:31:54.406Z,4.14
2023-03-07T17:34:57.300Z,4.14
2023-03-07T17:38:00.106Z,4.14
2023-03-07T17:41:02.968Z,4.14
2023-03-07T17:44:06.439Z,4.19
2023-03-07T17:47:09.348Z,4.15
2023-03-07T17:50:13.158Z,4.19
2023-03-07T17:53:16.219Z,4.25
2023-03-07T17:56:19.356Z,4.19
2023-03-07T17:59:22.535Z,4.25
2023-03-07T18:02:26.341Z,4.27
2023-03-07T18:05:29.757Z,4.28
2023-03-07T18:08:32.933Z,4.35
2023-03-07T18:11:37.338Z,4.33
2023-03-07T18:14:40.756Z,4.30
2023-03-07T18:17:49.093Z,4.17
2023-03-07T18:21:22.352Z,4.14
2023-03-07T18:24:27.424Z,4.21
2023-03-07T18:27:30.338Z,4.27
2023-03-07T18:30:34.482Z,4.29
2023-03-07T18:33:38.479Z,4.35
2023-03-07T18:36:42.220Z,4.42
2023-03-07T18:39:45.790Z,4.45
2023-03-07T18:42:49.640Z,4.44
2023-03-07T18:45:53.880Z,4.38
2023-03-07T18:48:57.773Z,4.47
2023-03-07T18:52:00.556Z,4.45
2023-03-07T18:55:03.618Z,4.30
2023-03-07T18:58:06.310Z,4.33
2023-03-07T19:01:21.143Z,4.28
2023-03-07T19:04:23.982Z,4.31
2023-03-07T19:07:28.960Z,4.33
2023-03-07T19:10:32.109Z,4.24
2023-03-07T19:13:35.572Z,4.25
2023-03-07T19:16:38.656Z,4.22
2023-03-07T19:19:41.697Z,4.25
2023-03-07T19:22:44.980Z,4.20
2023-03-07T19:25:48.850Z,4.19
2023-03-07T19:28:53.528Z,4.20
2023-03-07T19:31:56.687Z,4.22
2023-03-07T19:34:59.635Z,4.08
2023-03-07T19:38:02.546Z,4.03
2023-03-07T19:41:07.330Z,3.98
2023-03-07T19:44:12.508Z,4.11
2023-03-07T19:47:15.368Z,4.20
2023-03-07T19:50:19.025Z,4.20
2023-03-07T19:53:24.475Z,4.12
2023-03-07T19:56:30.750Z,4.07
2023-03-07T19:59:33.592Z,4.05
2023-03-07T20:02:38.313Z,4.09
2023-03-07T20:05:43.139Z,4.03
2023-03-07T20:08:48.583Z,4.15
2023-03-07T20:11:51.329Z,4.05
2023-03-07T20:14:54.179Z,3.97
2023-03-07T20:17:57.540Z,4.02
2023-03-07T20:21:05.760Z,4.08
2023-03-07T20:24:09.114Z,4.07
2023-03-07T20:27:11.896Z,3.97
2023-03-07T20:30:15.554Z,3.89
2023-03-07T20:33:18.365Z,3.83
2023-03-07T20:36:26.678Z,3.90
2023-03-07T20:39:29.706Z,3.80
2023-03-07T20:42:32.920Z,3.78
2023-03-07T20:45:35.789Z,3.68
2023-03-07T20:48:39.120Z,3.57
2023-03-07T20:51:42.445Z,3.58
2023-03-07T20:54:45.707Z,3.47
2023-03-07T20:57:48.740Z,3.62
2023-03-07T21:00:53.250Z,3.59
2023-03-07T21:03:56.651Z,3.46
2023-03-07T21:06:59.526Z,3.32
2023-03-07T21:10:02.246Z,3.21
2023-03-07T21:13:05.099Z,3.27
2023-03-07T21:16:19.832Z,3.29
2023-03-07T21:19:22.539Z,3.34
2023-03-07T21:22:25.244Z,3.46
2023-03-07T21:25:28.033Z,3.42
2023-03-07T21:28:35.277Z,3.57
2023-03-07T21:31:39.027Z,3.52
2023-03-07T21:34:41.711Z,3.62
2023-03-07T21:37:44.422Z,3.58
2023-03-07T21:40:47.474Z,3.52
2023-03-07T21:43:50.168Z,3.51
2023-03-07T21:46:53.085Z,3.45
2023-03-07T21:49:56.139Z,3.30
2023-03-07T21:52:58.977Z,3.40
2023-03-07T21:56:28.264Z,3.36
2023-03-07T21:59:33.659Z,3.37
2023-03-07T22:02:37.377Z,3.32
2023-03-07T22:05:40.605Z,3.36
2023-03-07T22:08:43.216Z,3.47
2023-03-07T22:11:45.862Z,3.45
2023-03-07T22:14:48.790Z,3.50
2023-03-07T22:17:51.525Z,3.47
2023-03-07T22:20:55.401Z,3.61
2023-03-07T22:24:00.127Z,3.54
2023-03-07T22:27:02.915Z,3.57
2023-03-07T22:30:06.804Z,3.63
2023-03-07T22:33:09.532Z,3.57
2023-03-07T22:36:13.659Z,3.54
2023-03-07T22:39:16.281Z,3.52
2023-03-07T22:42:18.950Z,3.47
2023-03-07T22:45:21.654Z,3.52
2023-03-07T22:48:24.421Z,3.42
2023-03-07T22:51:27.274Z,3.33
2023-03-07T22:54:30.019Z,3.24
2023-03-07T22:57:32.698Z,3.26
2023-03-07T23:00:35.416Z,3.19
2023-03-07T23:03:38.099Z,3.31
2023-03-07T23:06:40.778Z,3.35
2023-03-07T23:09:43.433Z,3.40
2023-03-07T23:12:49.935Z,3.46
2023-03-07T23:15:52.567Z,3.43
2023-03-07T23:18:57.105Z,3.32
2023-03-07T23:21:59.704Z,3.25
2023-03-07T23:25:02.365Z,3.18
2023-03-07T23:28:05.066Z,3.28
2023-03-07T23:31:16.695Z,3.23
2023-03-07T23:34:20.625Z,3.16
2023-03-07T23:37:23.176Z,3.32
2023-03-07T23:40:25.805Z,3.29
2023-03-07T23:43:28.535Z,3.36
2023-03-07T23:46:32.131Z,3.43
2023-03-07T23:49:34.789Z,3.30
2023-03-07T23:52:37.396Z,3.19
2023-03-07T23:55:43.325Z,3.17
2023-03-07T23:58:50.006Z,3.21
